Terminal Aerodrome Forecast
Issued by NWS Bismarck, ND

Home | Current Version | Previous Version | Graphics & Text | Print | Product List | Glossary On
Versions: 1 2 3 4 5 6 7 8 9 10 11 12 13 14 15
000
FTUS43 KBIS 152300
TAFBIS
TAF
KBIS 152338Z 1600/1624 12018KT P6SM BKN070
     FM160700 05016KT 4SM -SN OVC020
     FM161500 04014KT P6SM OVC020
     FM161900 04013KT P6SM BKN050=

USA.gov is the U.S. government's official web portal to all federal, state and local government web resources and services.